• Join FlightAware (Why Join?)
  • Login
  • US Flag 
08:22AM EST


 

Airport Tracker/Info


-or-


 

Live Flight TrackerFlight Track Log ✈ EJA929 ✈ 13-Sep-2013 ✈ KLAS - KFNL

Flight Track Log - Related Links

Times and Time Zones

All times are in EDT time to prevent confusion due to time zone crossing. See the EJA929 flight status page for this flight to view local times or setup timezone preferences in your user account.

Time Position Orientation Groundspeed Altitude Reporting Facility
EDT Latitude Longitude Course Direction KTS MPH feet Rate Location/Type
04:58PM 36.0767 -115.1706 270° West 190 219 3,500  Level Los Angeles Center
04:59PM 36.0761 -115.2481 270° West 237 273 7,200 3,180 Climbing Los Angeles Center
04:59PM 36.0758 -115.2411 93° East 215 247 7,000 4,200 Descending Los Angeles Center
05:00PM 36.1208 -115.2936 317° Northwest 238 274 11,900 3,480 Climbing Los Angeles Center
05:01PM 36.1839 -115.2253 41° Northeast 287 330 15,000 1,740 Climbing Los Angeles Center
05:02PM 36.1975 -115.0883 83° East 361 415 16,000 960 Climbing Los Angeles Center
05:03PM 36.1986 -114.9525 89° East 394 453 17,100 1,200 Climbing Los Angeles Center
05:04PM 36.1992 -114.8097 90° East 412 474 18,600 1,380 Climbing Los Angeles Center
05:05PM 36.1983 -114.6625 90° East 426 490 20,000 1,440 Climbing Los Angeles Center
05:06PM 36.1953 -114.4842 91° East 432 497 21,600 1,320 Climbing Los Angeles Center
05:07PM 36.2147 -114.3367 81° East 443 510 23,000 1,320 Climbing Los Angeles Center
05:08PM 36.2764 -114.1689 65° Northeast 448 516 24,700 1,440 Climbing Los Angeles Center
05:09PM 36.3311 -114.0272 64° Northeast 455 524 26,100 1,200 Climbing Los Angeles Center
05:10PM 36.3997 -113.9306 49° Northeast 475 547 27,200 1,380 Climbing Los Angeles Center
05:11PM 36.5111 -113.7933 45° Northeast 468 539 29,000 1,620 Climbing Los Angeles Center
05:12PM 36.6242 -113.6539 45° Northeast 477 549 30,600 1,800 Climbing Los Angeles Center
05:14PM 36.7192 -113.5356 45° Northeast 483 556 32,800 1,800 Climbing Los Angeles Center
05:15PM 36.8131 -113.4183 45° Northeast 481 554 34,400 1,680 Climbing Los Angeles Center
05:16PM 36.9064 -113.3008 45° Northeast 479 551 36,300 1,620 Climbing Los Angeles Center
05:17PM 37.0003 -113.1833 45° Northeast 480 552 37,800 1,500 Climbing Los Angeles Center
05:18PM 37.0942 -113.0664 45° Northeast 479 551 39,400 1,680 Climbing Los Angeles Center
05:19PM 37.2044 -112.9250 46° Northeast 477 549 41,300 1,560 Climbing Los Angeles Center
05:20PM 37.2958 -112.8081 45° Northeast 474 545 42,700 960 Climbing Los Angeles Center
05:21PM 37.3686 -112.7128 46° Northeast 478 550 43,300 1,080 Climbing Los Angeles Center
05:22PM 37.4769 -112.5742 45° Northeast 470 541 45,000 780 Climbing Los Angeles Center
05:23PM 37.5869 -112.4331 45° Northeast 476 548 45,000  Level Los Angeles Center
05:23PM 37.6436 -112.3603 45° Northeast 482 555 45,000  Level Salt Lake Center
05:24PM 37.7278 -112.2186 53° Northeast 503 579 45,000  Level Salt Lake Center
05:25PM 37.7986 -112.0636 60° Northeast 512 589 45,000  Level Salt Lake Center
05:26PM 37.8706 -111.9072 60° Northeast 515 593 45,000  Level Salt Lake Center
05:27PM 37.9139 -111.8153 59° Northeast 511 588 45,000  Level Denver Center
05:28PM 37.9833 -111.6644 60° Northeast 498 573 45,000  Level Denver Center
05:30PM 38.0789 -111.4553 60° Northeast 491 565 45,000  Level Salt Lake Center
05:31PM 38.1606 -111.2775 60° Northeast 487 560 45,000  Level Salt Lake Center
05:32PM 38.2272 -111.1267 61° Northeast 490 564 45,000  Level Salt Lake Center
05:33PM 38.2942 -110.9767 60° Northeast 489 563 45,000  Level Salt Lake Center
05:34PM 38.3678 -110.8133 60° Northeast 489 563 45,000  Level Salt Lake Center
05:34PM 38.4089 -110.7150 62° Northeast 490 564 45,000  Level Denver Center
05:35PM 38.4589 -110.5575 68° East 499 574 45,000  Level Denver Center
05:36PM 38.5119 -110.3689 70° East 506 582 45,000  Level Denver Center
05:38PM 38.5572 -110.2044 71° East 512 589 45,000  Level Denver Center
05:39PM 38.6294 -109.9592 69° East 515 593 45,000  Level Salt Lake Center
05:40PM 38.6581 -109.8475 72° East 515 593 45,000  Level Denver Center
05:41PM 38.6922 -109.6472 78° East 517 595 45,000 -420 Level Denver Center
05:42PM 38.7156 -109.4731 80° East 518 596 44,200 -1,260 Descending Denver Center
05:43PM 38.7464 -109.2772 79° East 505 581 42,400 -1,560 Descending Denver Center
05:44PM 38.7722 -109.1044 79° East 518 596 41,000 -720 Descending Denver Center
05:45PM 38.8017 -108.8994 79° East 526 605 41,000  Level Denver Center
05:46PM 38.8272 -108.7211 80° East 532 612 41,000  Level Denver Center
05:47PM 38.8572 -108.5119 80° East 537 618 41,000  Level Denver Center
05:48PM 38.8817 -108.3286 80° East 546 628 41,000  Level Denver Center
05:49PM 38.9122 -108.1167 79° East 544 626 41,000  Level Denver Center
05:50PM 38.9375 -107.9342 80° East 545 627 41,000 -900 Level Denver Center
05:51PM 38.9669 -107.7258 80° East 536 617 39,200 -1,740 Descending Denver Center
05:52PM 38.9897 -107.5447 81° East 536 617 37,500 -1,800 Descending Denver Center
05:53PM 39.0172 -107.3392 80° East 524 603 35,600 -2,160 Descending Denver Center
05:54PM 39.0397 -107.1642 81° East 521 600 33,100 -2,760 Descending Denver Center
05:55PM 39.0650 -106.9622 81° East 515 593 30,000 -2,520 Descending Denver Center
05:56PM 39.0881 -106.7800 81° East 531 611 28,000 -1,500 Descending Denver Center
05:57PM 39.1156 -106.5703 80° East 534 615 27,000 -480 Descending Denver Center
05:58PM 39.1394 -106.3697 81° East 512 589 27,000  Level Denver Center
05:59PM 39.1617 -106.1764 82° East 494 568 27,000  Level Denver Center
06:00PM 39.1800 -106.0217 81° East 483 556 27,000  Level Denver Center
06:01PM 39.2064 -105.8222 80° East 474 545 27,000 -120 Level Denver Center
06:03PM 39.2778 -105.6811 57° Northeast 476 548 26,800 -1,200 Descending Denver Center
06:04PM 39.3453 -105.5661 53° Northeast 410 472 24,600 -1,860 Descending Denver Center
06:05PM 39.4133 -105.4533 52° Northeast 386 444 23,000 -840 Descending Denver Center
06:06PM 39.4800 -105.3389 53° Northeast 369 425 23,000 -600 Level Denver Center
06:07PM 39.5656 -105.2683 32° Northeast 369 425 21,800 -1,560 Descending Denver Center
06:08PM 39.6639 -105.2389 13° North 362 417 19,800 -2,040 Descending Denver Center
06:09PM 39.7697 -105.2100 12° North 361 415 17,700 -1,860 Descending Denver Center
06:10PM 39.8617 -105.1800 14° North 343 395 16,000 -1,740 Descending Denver Center
06:11PM 39.9567 -105.1408 18° North 334 384 14,200 -2,160 Descending Denver Center
06:12PM 40.0397 -105.1050 18° North 316 364 11,600 -2,280 Descending Denver Center
06:13PM 40.1181 -105.0731 17° North 297 342 9,600 -1,260 Descending Denver Center
06:14PM 40.1964 -105.0403 18° North 273 314 9,000 -720 Descending Denver Center
06:15PM 40.2614 -105.0142 17° North 249 287 8,200 -1,020 Descending Denver Center
06:16PM 40.3264 -104.9875 17° North 245 282 7,000 -900 Descending Denver Center
06:17PM 40.3883 -104.9792 North 206 237 6,400 -840 Descending Denver Center
06:18PM 40.4258 -105.0025 335° Northwest 152 175 5,300 -660 Descending Denver Center
06:19PM 40.4586 -105.0167 342° North 141 162 5,100 -240 Descending Denver Center
06:21PM 40.4518 -105.0113 143° Southeast  Level Estimated
06:28PM 40.4518 -105.0113 143° Southeast  Level Estimated